Time;durP1;ratioP1;P1;durP2;ratioP2;P2;SDS_P1;SDS_P2;PMS_P1;PMS_P2;Temp;Humidity;BMP_temperature;BMP_pressure;BME280_temperature;BME280_humidity;BME280_pressure;Samples;Min_cycle;Max_cycle;Signal;HPM_P1;HPM_P2
2023/07/23 00:01:57;;;;;;;6.68;4.13;;;19.40;63.10;;;;;;5059587;28;20553;-73
2023/07/23 00:04:24;;;;;;;6.40;4.15;;;19.40;63.00;;;;;;5062156;28;20576;-71
2023/07/23 00:06:51;;;;;;;9.05;4.43;;;19.40;63.20;;;;;;5063361;28;20067;-73
2023/07/23 00:09:19;;;;;;;7.78;4.18;;;19.30;63.40;;;;;;5061335;28;20068;-72
2023/07/23 00:11:46;;;;;;;6.72;4.00;;;19.30;63.30;;;;;;5064121;28;20052;-72
2023/07/23 00:14:13;;;;;;;8.30;4.60;;;19.30;63.50;;;;;;5063817;28;20507;-71
2023/07/23 00:16:40;;;;;;;6.68;3.97;;;19.30;63.70;;;;;;5061335;28;20059;-73
2023/07/23 00:19:08;;;;;;;7.85;4.40;;;19.20;63.60;;;;;;5064408;28;20057;-71
2023/07/23 00:21:35;;;;;;;7.32;4.57;;;19.20;63.70;;;;;;5066321;28;20120;-73
2023/07/23 00:24:04;;;;;;;6.15;3.92;;;19.20;63.90;;;;;;5064665;28;20060;-72
2023/07/23 00:26:32;;;;;;;7.55;4.30;;;19.20;63.80;;;;;;5062257;28;20385;-71
2023/07/23 00:28:59;;;;;;;7.20;4.90;;;19.20;63.80;;;;;;5063827;28;20519;-73
2023/07/23 00:31:26;;;;;;;7.15;4.22;;;19.20;63.70;;;;;;5065455;28;20064;-72
2023/07/23 00:33:54;;;;;;;8.38;4.43;;;19.20;63.90;;;;;;5061476;28;20044;-72
2023/07/23 00:36:20;;;;;;;5.75;3.95;;;19.20;64.10;;;;;;5065595;28;20492;-72
2023/07/23 00:38:47;;;;;;;6.70;4.15;;;19.10;64.20;;;;;;5064971;28;20451;-72
2023/07/23 00:41:15;;;;;;;5.88;3.78;;;19.10;64.40;;;;;;5066104;28;20052;-71
2023/07/23 00:43:44;;;;;;;6.40;3.88;;;19.20;64.70;;;;;;5065985;28;20501;-72
2023/07/23 00:46:11;;;;;;;6.75;4.53;;;19.20;64.70;;;;;;5062570;28;20211;-71
2023/07/23 00:48:38;;;;;;;7.07;4.28;;;19.10;64.70;;;;;;5064063;28;20476;-72
2023/07/23 00:51:05;;;;;;;7.05;4.45;;;19.10;64.90;;;;;;5061512;28;20626;-71
2023/07/23 00:53:33;;;;;;;6.97;3.88;;;19.10;65.00;;;;;;5066892;28;20460;-72
2023/07/23 00:56:00;;;;;;;5.72;3.90;;;19.10;64.90;;;;;;5064689;28;20037;-72
2023/07/23 00:58:27;;;;;;;6.20;3.95;;;19.10;65.00;;;;;;5063795;28;20048;-71
2023/07/23 01:00:56;;;;;;;5.80;3.90;;;19.00;65.20;;;;;;5062757;28;20504;-72
2023/07/23 01:03:23;;;;;;;7.18;4.57;;;19.10;65.40;;;;;;5057677;28;20135;-72
2023/07/23 01:05:51;;;;;;;8.15;4.43;;;19.00;65.40;;;;;;5063436;28;20479;-73
2023/07/23 01:08:20;;;;;;;8.13;4.43;;;19.00;65.20;;;;;;5060219;28;20049;-73
2023/07/23 01:10:48;;;;;;;7.87;4.80;;;19.00;65.40;;;;;;5065224;28;20040;-71
2023/07/23 01:13:16;;;;;;;7.20;4.90;;;19.00;65.50;;;;;;5062058;28;20052;-71
2023/07/23 01:15:43;;;;;;;7.35;4.50;;;19.00;65.40;;;;;;5062588;28;20044;-72
2023/07/23 01:18:12;;;;;;;7.65;5.25;;;18.90;65.40;;;;;;5063450;28;20508;-72
2023/07/23 01:20:39;;;;;;;6.20;4.72;;;19.00;65.60;;;;;;5064272;28;20144;-72
2023/07/23 01:23:08;;;;;;;7.75;5.30;;;18.90;65.90;;;;;;5063818;28;20045;-72
2023/07/23 01:25:35;;;;;;;8.70;5.55;;;18.80;65.90;;;;;;5061323;28;20056;-72
2023/07/23 01:28:02;;;;;;;6.93;5.05;;;18.80;66.20;;;;;;5064381;28;20055;-72
2023/07/23 01:30:29;;;;;;;7.10;5.07;;;18.70;66.30;;;;;;5065811;28;20048;-72
2023/07/23 01:32:56;;;;;;;7.53;5.43;;;18.70;66.50;;;;;;5059034;28;20109;-73
2023/07/23 01:35:24;;;;;;;6.30;4.82;;;18.70;66.60;;;;;;5060360;28;20127;-72
2023/07/23 01:37:52;;;;;;;8.40;5.15;;;18.60;66.80;;;;;;5065607;28;20047;-72
2023/07/23 01:40:20;;;;;;;8.90;5.43;;;18.60;67.10;;;;;;5063059;28;20044;-73
2023/07/23 01:42:47;;;;;;;8.18;5.18;;;18.60;67.40;;;;;;5065075;28;20041;-72
2023/07/23 01:45:14;;;;;;;7.50;4.88;;;18.60;67.50;;;;;;5064364;28;20051;-73
2023/07/23 01:47:41;;;;;;;6.85;5.07;;;18.60;67.80;;;;;;5061157;28;20079;-73
2023/07/23 01:50:09;;;;;;;9.07;4.97;;;18.50;68.10;;;;;;5080585;28;20052;-72
2023/07/23 01:52:36;;;;;;;8.57;5.05;;;18.50;68.40;;;;;;5056251;28;20093;-70
2023/07/23 01:55:04;;;;;;;7.80;4.85;;;18.40;68.50;;;;;;5060853;28;20526;-72
2023/07/23 01:57:32;;;;;;;7.70;4.68;;;18.40;68.70;;;;;;5054127;28;20072;-72
2023/07/23 01:59:59;;;;;;;8.70;4.97;;;18.30;68.70;;;;;;5055987;28;20063;-72
2023/07/23 02:02:26;;;;;;;7.63;4.80;;;18.30;68.90;;;;;;5061309;28;20150;-71
2023/07/23 02:04:53;;;;;;;9.50;5.60;;;18.20;69.00;;;;;;5062038;28;20466;-69
2023/07/23 02:07:21;;;;;;;9.48;5.80;;;18.20;69.20;;;;;;5059985;28;20055;-71
2023/07/23 02:09:50;;;;;;;7.45;5.25;;;18.10;69.40;;;;;;5061967;28;20672;-71
2023/07/23 02:12:17;;;;;;;7.80;5.13;;;18.10;69.70;;;;;;5061211;28;20050;-72
2023/07/23 02:14:46;;;;;;;7.22;5.07;;;18.10;69.80;;;;;;5061783;28;20094;-72
2023/07/23 02:17:13;;;;;;;7.43;4.88;;;18.10;69.70;;;;;;5057365;28;20048;-71
2023/07/23 02:19:43;;;;;;;8.38;5.25;;;18.10;69.90;;;;;;5063821;28;20106;-71
2023/07/23 02:22:10;;;;;;;8.18;4.72;;;18.00;69.90;;;;;;5061248;28;20045;-71
2023/07/23 02:24:37;;;;;;;7.10;5.18;;;18.00;69.90;;;;;;5064332;28;20068;-71
2023/07/23 02:27:04;;;;;;;9.30;5.47;;;18.00;69.90;;;;;;5065682;28;20419;-71
2023/07/23 02:29:32;;;;;;;6.25;4.70;;;17.90;70.00;;;;;;5069519;28;20586;-72
2023/07/23 02:32:00;;;;;;;7.50;5.22;;;17.90;70.00;;;;;;5069167;28;20103;-71
2023/07/23 02:34:28;;;;;;;8.07;5.30;;;17.80;70.10;;;;;;5059741;28;20041;-71
2023/07/23 02:36:55;;;;;;;7.60;5.47;;;17.80;70.20;;;;;;5066640;28;20082;-72
2023/07/23 02:39:22;;;;;;;8.27;6.07;;;17.80;70.10;;;;;;5068133;28;20036;-72
2023/07/23 02:41:49;;;;;;;6.82;4.95;;;17.80;70.10;;;;;;5064989;28;20052;-72
2023/07/23 02:44:16;;;;;;;8.25;5.28;;;17.70;70.10;;;;;;5064299;28;20127;-72
2023/07/23 02:46:43;;;;;;;7.88;5.25;;;17.70;70.20;;;;;;5064598;28;20044;-72
2023/07/23 02:49:12;;;;;;;9.50;5.30;;;17.60;70.30;;;;;;5067321;28;20443;-71
2023/07/23 02:51:39;;;;;;;6.90;4.80;;;17.60;70.20;;;;;;5064947;28;20064;-71
2023/07/23 02:54:08;;;;;;;7.78;4.97;;;17.60;70.10;;;;;;5066316;28;20044;-71
2023/07/23 02:56:35;;;;;;;8.75;5.15;;;17.60;70.10;;;;;;5065976;28;20493;-71
2023/07/23 02:59:03;;;;;;;7.72;4.93;;;17.50;70.10;;;;;;5066804;28;20095;-71
2023/07/23 03:01:31;;;;;;;7.32;5.28;;;17.50;70.30;;;;;;5063832;28;20118;-72
2023/07/23 03:03:58;;;;;;;6.97;5.22;;;17.40;70.40;;;;;;5066871;28;20044;-71
2023/07/23 03:06:27;;;;;;;8.07;5.18;;;17.40;70.50;;;;;;5066985;28;20138;-71
2023/07/23 03:08:54;;;;;;;7.97;5.00;;;17.30;70.50;;;;;;5065129;28;20507;-71
2023/07/23 03:11:21;;;;;;;8.98;5.10;;;17.30;70.50;;;;;;5065548;28;20059;-71
2023/07/23 03:13:48;;;;;;;10.05;5.20;;;17.20;70.60;;;;;;5066502;28;20563;-71
2023/07/23 03:16:14;;;;;;;6.38;4.65;;;17.30;70.60;;;;;;5064450;28;20515;-72
2023/07/23 03:18:42;;;;;;;6.70;4.72;;;17.20;70.60;;;;;;5061928;28;20076;-73
2023/07/23 03:21:09;;;;;;;7.00;4.65;;;17.20;70.70;;;;;;5064380;28;20516;-72
2023/07/23 03:23:38;;;;;;;7.43;5.22;;;17.10;70.70;;;;;;5065758;28;20048;-71
2023/07/23 03:26:05;;;;;;;8.15;5.10;;;17.10;70.70;;;;;;5066435;28;20059;-72
2023/07/23 03:28:31;;;;;;;7.88;5.18;;;17.10;70.90;;;;;;5065990;28;20041;-71
2023/07/23 03:30:59;;;;;;;7.88;5.22;;;17.10;70.90;;;;;;5065506;28;20052;-71
2023/07/23 03:33:27;;;;;;;8.98;5.93;;;17.00;71.10;;;;;;5066874;28;20040;-70
2023/07/23 03:35:53;;;;;;;7.43;5.07;;;17.00;71.10;;;;;;5077965;28;20071;-71
2023/07/23 03:38:20;;;;;;;8.25;5.32;;;17.00;71.20;;;;;;5064011;28;20542;-71
2023/07/23 03:40:49;;;;;;;8.20;4.97;;;17.00;71.10;;;;;;5065864;28;20596;-72
2023/07/23 03:43:16;;;;;;;9.85;5.40;;;16.90;71.20;;;;;;5061733;28;20076;-72
2023/07/23 03:45:43;;;;;;;8.55;5.75;;;16.90;71.40;;;;;;5064208;28;20135;-71
2023/07/23 03:48:10;;;;;;;6.82;4.95;;;16.90;71.50;;;;;;5065203;28;20045;-71
2023/07/23 03:50:37;;;;;;;8.25;5.07;;;16.80;71.50;;;;;;5065443;28;20500;-71
2023/07/23 03:53:04;;;;;;;8.70;5.25;;;16.80;71.70;;;;;;5060539;28;20522;-71
2023/07/23 03:55:32;;;;;;;7.15;5.13;;;16.80;71.80;;;;;;5059300;28;20135;-72
2023/07/23 03:58:01;;;;;;;9.70;5.43;;;16.70;71.80;;;;;;5063023;28;20405;-72
2023/07/23 04:00:28;;;;;;;8.73;5.40;;;16.70;72.00;;;;;;5064093;28;20049;-71
2023/07/23 04:02:55;;;;;;;8.57;5.75;;;16.70;72.00;;;;;;5066541;28;20048;-70
2023/07/23 04:05:22;;;;;;;8.40;5.55;;;16.70;72.10;;;;;;5065055;28;20045;-71
2023/07/23 04:07:49;;;;;;;8.32;5.00;;;16.60;72.00;;;;;;5063485;28;20511;-72
2023/07/23 04:10:16;;;;;;;8.80;5.43;;;16.60;72.00;;;;;;5065174;28;20056;-71
2023/07/23 04:12:43;;;;;;;7.97;5.00;;;16.60;72.10;;;;;;5066095;28;20048;-70
2023/07/23 04:15:11;;;;;;;7.53;4.95;;;16.60;72.20;;;;;;5059783;28;20048;-71
2023/07/23 04:17:39;;;;;;;7.80;5.20;;;16.60;72.10;;;;;;5063989;28;20072;-71
2023/07/23 04:20:07;;;;;;;7.68;5.43;;;16.60;72.10;;;;;;5065632;28;20056;-71
2023/07/23 04:22:34;;;;;;;10.10;5.32;;;16.60;72.10;;;;;;5064353;28;20044;-70
2023/07/23 04:25:01;;;;;;;7.10;5.25;;;16.60;71.90;;;;;;5062879;28;20049;-71
2023/07/23 04:27:28;;;;;;;7.78;5.28;;;16.60;72.00;;;;;;5061698;28;20382;-70
2023/07/23 04:29:55;;;;;;;7.68;5.15;;;16.60;72.00;;;;;;5067550;28;20064;-71
2023/07/23 04:32:23;;;;;;;9.32;5.93;;;16.60;72.00;;;;;;5062136;28;20045;-71
2023/07/23 04:34:50;;;;;;;8.05;5.30;;;16.70;72.00;;;;;;5066978;28;20163;-71
2023/07/23 04:37:17;;;;;;;7.90;5.15;;;16.70;71.80;;;;;;5064055;28;20079;-70
2023/07/23 04:39:44;;;;;;;9.20;5.55;;;16.80;71.50;;;;;;5062167;28;20698;-71
2023/07/23 04:42:13;;;;;;;7.65;5.50;;;16.80;71.20;;;;;;5066421;28;20420;-71
2023/07/23 04:44:40;;;;;;;6.85;5.03;;;16.80;70.80;;;;;;5064991;28;20041;-71
2023/07/23 04:47:07;;;;;;;7.35;5.40;;;16.80;70.90;;;;;;5058845;28;20179;-71
2023/07/23 04:49:35;;;;;;;8.82;5.43;;;16.90;70.90;;;;;;5063846;28;20050;-71
2023/07/23 04:52:02;;;;;;;8.20;5.38;;;16.90;70.70;;;;;;5064883;28;20725;-72
2023/07/23 04:54:29;;;;;;;7.78;5.72;;;16.90;70.60;;;;;;5063508;28;20048;-71
2023/07/23 04:56:56;;;;;;;8.15;5.32;;;17.00;70.40;;;;;;5060935;28;20045;-72
2023/07/23 04:59:23;;;;;;;7.97;5.43;;;17.00;70.50;;;;;;5060918;28;20063;-71
2023/07/23 05:01:50;;;;;;;8.55;5.60;;;17.00;70.60;;;;;;5061564;28;20041;-71
2023/07/23 05:04:17;;;;;;;8.90;5.70;;;17.00;70.70;;;;;;5062192;28;20041;-71
2023/07/23 05:06:45;;;;;;;8.40;5.85;;;17.00;70.50;;;;;;5064039;28;20138;-72
2023/07/23 05:09:12;;;;;;;8.98;6.00;;;17.00;70.70;;;;;;5064485;28;20052;-71
2023/07/23 05:11:39;;;;;;;8.40;5.75;;;17.10;70.60;;;;;;5064106;28;20139;-71
2023/07/23 05:14:06;;;;;;;8.05;5.82;;;17.10;70.50;;;;;;5063395;28;20156;-71
2023/07/23 05:16:33;;;;;;;7.88;5.90;;;17.10;70.50;;;;;;5061627;28;20416;-71
2023/07/23 05:19:00;;;;;;;7.78;5.60;;;17.10;70.60;;;;;;5062694;28;20060;-71
2023/07/23 05:21:27;;;;;;;8.45;5.90;;;17.20;70.40;;;;;;5065903;28;20048;-71
2023/07/23 05:23:55;;;;;;;10.50;6.25;;;17.20;70.20;;;;;;5060437;28;20056;-71
2023/07/23 05:26:22;;;;;;;7.22;5.50;;;17.20;70.10;;;;;;5062849;28;20143;-72
2023/07/23 05:28:49;;;;;;;8.07;5.38;;;17.20;69.80;;;;;;5063702;28;20059;-71
2023/07/23 05:31:17;;;;;;;7.93;5.43;;;17.30;69.80;;;;;;5058009;28;20050;-71
2023/07/23 05:33:44;;;;;;;6.90;5.38;;;17.30;69.70;;;;;;5063994;28;20114;-71
2023/07/23 05:36:11;;;;;;;6.15;4.72;;;17.30;69.90;;;;;;5061823;28;20045;-71
2023/07/23 05:38:38;;;;;;;9.18;5.45;;;17.40;69.70;;;;;;5063021;28;20171;-71
2023/07/23 05:41:06;;;;;;;8.27;5.70;;;17.50;69.70;;;;;;5062893;28;20049;-71
2023/07/23 05:43:33;;;;;;;8.27;5.53;;;17.50;69.70;;;;;;5063335;28;20129;-72
2023/07/23 05:46:00;;;;;;;7.72;5.53;;;17.50;69.90;;;;;;5062176;28;20131;-71
2023/07/23 05:48:27;;;;;;;8.35;5.93;;;17.60;69.90;;;;;;5060422;28;20052;-71
2023/07/23 05:50:54;;;;;;;8.02;5.43;;;17.60;69.90;;;;;;5063729;28;20053;-71
2023/07/23 05:53:21;;;;;;;11.00;6.38;;;17.60;70.00;;;;;;5063315;28;20040;-71
2023/07/23 05:55:48;;;;;;;8.68;5.38;;;17.70;69.70;;;;;;5062820;28;20522;-72
2023/07/23 05:58:16;;;;;;;8.35;5.63;;;17.80;69.30;;;;;;5061343;28;20051;-72
2023/07/23 06:00:43;;;;;;;7.60;5.32;;;17.90;69.50;;;;;;5063342;28;20127;-72
2023/07/23 06:03:10;;;;;;;7.03;5.22;;;17.80;69.30;;;;;;5059567;28;20574;-72
2023/07/23 06:05:37;;;;;;;7.05;4.93;;;17.90;68.60;;;;;;5063262;28;20461;-71
2023/07/23 06:08:05;;;;;;;6.90;4.70;;;18.00;68.70;;;;;;5063381;28;20048;-71
2023/07/23 06:10:33;;;;;;;7.15;4.50;;;18.10;69.00;;;;;;5062839;28;20064;-71
2023/07/23 06:12:59;;;;;;;7.57;4.72;;;18.10;69.00;;;;;;5062510;28;20059;-71
2023/07/23 06:15:28;;;;;;;7.45;5.22;;;18.10;69.40;;;;;;5061575;28;20516;-71
2023/07/23 06:17:55;;;;;;;7.18;4.88;;;18.10;69.20;;;;;;5060560;28;20618;-71
2023/07/23 06:20:22;;;;;;;7.65;4.82;;;18.10;69.20;;;;;;5062045;28;20056;-72
2023/07/23 06:22:49;;;;;;;7.75;5.10;;;18.10;69.30;;;;;;5063175;28;20136;-71
2023/07/23 06:25:16;;;;;;;6.75;5.05;;;18.10;69.10;;;;;;5061771;28;20583;-71
2023/07/23 06:27:43;;;;;;;8.05;4.97;;;18.10;69.20;;;;;;5061574;28;20055;-72
2023/07/23 06:30:10;;;;;;;7.28;4.93;;;18.10;69.40;;;;;;5059705;28;20053;-71
2023/07/23 06:32:38;;;;;;;7.43;5.20;;;18.10;69.30;;;;;;5062705;28;20497;-71
2023/07/23 06:35:10;;;;;;;8.07;4.82;;;18.20;69.20;;;;;;5061895;28;20055;-71
2023/07/23 06:37:38;;;;;;;8.93;5.00;;;18.30;68.90;;;;;;5063561;28;20057;-71
2023/07/23 06:40:07;;;;;;;7.25;4.70;;;18.40;68.50;;;;;;5061046;28;20110;-71
2023/07/23 06:42:34;;;;;;;7.72;4.45;;;18.50;68.10;;;;;;5063209;28;20058;-71
2023/07/23 06:45:01;;;;;;;6.80;4.45;;;18.60;67.80;;;;;;5064271;28;20522;-71
2023/07/23 06:47:28;;;;;;;6.88;4.53;;;18.70;67.60;;;;;;5060460;28;20106;-71
2023/07/23 06:49:56;;;;;;;6.32;4.35;;;18.90;67.30;;;;;;5063191;28;20044;-71
2023/07/23 06:52:23;;;;;;;8.13;5.30;;;19.10;66.90;;;;;;5060884;28;20045;-70
2023/07/23 06:54:50;;;;;;;6.97;4.88;;;19.20;66.30;;;;;;5056538;28;20484;-71
2023/07/23 06:57:17;;;;;;;7.40;4.78;;;19.40;66.00;;;;;;5061255;28;20169;-71
2023/07/23 06:59:46;;;;;;;7.88;4.55;;;19.50;65.70;;;;;;5059716;28;20129;-71
2023/07/23 07:02:13;;;;;;;7.25;4.50;;;19.70;65.30;;;;;;5061973;28;20056;-71
2023/07/23 07:04:40;;;;;;;6.30;4.45;;;19.90;65.00;;;;;;5063294;28;20051;-71
2023/07/23 07:07:08;;;;;;;6.38;4.22;;;20.10;64.60;;;;;;5060593;28;20048;-71
2023/07/23 07:09:35;;;;;;;6.15;3.80;;;20.40;63.60;;;;;;5063915;28;20509;-71
2023/07/23 07:12:02;;;;;;;6.35;3.95;;;20.60;62.70;;;;;;5065384;28;20076;-72
2023/07/23 07:14:29;;;;;;;6.70;3.75;;;20.90;61.40;;;;;;5064297;28;20051;-71
2023/07/23 07:16:56;;;;;;;8.75;3.60;;;21.20;59.60;;;;;;5066695;28;20048;-71
2023/07/23 07:19:23;;;;;;;6.18;3.50;;;21.50;58.60;;;;;;5064829;28;20455;-71
2023/07/23 07:21:50;;;;;;;5.28;3.40;;;21.60;57.60;;;;;;5067035;28;20044;-71
2023/07/23 07:24:19;;;;;;;7.40;3.95;;;21.90;57.30;;;;;;5062497;28;20036;-71
2023/07/23 07:26:46;;;;;;;6.82;3.78;;;22.20;57.20;;;;;;5064720;28;20063;-71
2023/07/23 07:29:13;;;;;;;5.50;3.38;;;22.20;56.10;;;;;;5066553;28;20044;-71
2023/07/23 07:31:40;;;;;;;7.13;3.70;;;22.40;56.00;;;;;;5065780;28;20049;-72
2023/07/23 07:34:07;;;;;;;6.22;3.30;;;22.50;55.30;;;;;;5066156;28;20056;-71
2023/07/23 07:36:34;;;;;;;7.80;3.47;;;22.70;55.20;;;;;;5066382;28;20048;-71
2023/07/23 07:39:01;;;;;;;4.88;3.20;;;22.70;54.60;;;;;;5066662;28;20055;-71
2023/07/23 07:41:29;;;;;;;5.60;3.30;;;22.80;54.50;;;;;;5062431;28;20602;-71
2023/07/23 07:43:56;;;;;;;5.85;2.90;;;23.00;53.90;;;;;;5064781;28;20060;-72
2023/07/23 07:46:24;;;;;;;5.38;3.40;;;23.00;53.90;;;;;;5065416;28;20135;-70
2023/07/23 07:48:51;;;;;;;4.53;2.92;;;23.20;53.30;;;;;;5061507;28;20135;-72
2023/07/23 07:51:18;;;;;;;5.22;3.10;;;23.30;53.20;;;;;;5064574;28;20079;-71
2023/07/23 07:53:45;;;;;;;6.80;3.08;;;23.40;52.90;;;;;;5065869;28;20440;-71
2023/07/23 07:56:17;;;;;;;6.57;3.10;;;23.50;52.50;;;;;;5063633;28;20103;-72
2023/07/23 07:58:46;;;;;;;3.95;2.80;;;23.40;52.60;;;;;;5064116;28;20049;-72
2023/07/23 08:01:13;;;;;;;;;;;23.40;52.40;;;;;;5064535;28;20500;-71
2023/07/23 08:03:41;;;;;;;4.10;2.70;;;23.60;52.20;;;;;;5066665;28;19926;-71
2023/07/23 08:06:08;;;;;;;4.60;2.88;;;23.70;51.90;;;;;;5063100;28;20049;-71
2023/07/23 08:08:37;;;;;;;5.25;2.75;;;23.80;51.70;;;;;;5064784;28;20064;-71
2023/07/23 08:11:07;;;;;;;4.07;2.90;;;23.70;51.40;;;;;;5063549;28;20056;-71
2023/07/23 08:13:37;;;;;;;4.97;2.72;;;23.90;51.30;;;;;;5063420;28;20052;-72
2023/07/23 08:16:05;;;;;;;;;;;23.90;51.10;;;;;;5064855;28;20588;-70
2023/07/23 08:18:33;;;;;;;2.83;2.23;;;23.80;51.50;;;;;;5066450;28;20030;-71
2023/07/23 08:21:00;;;;;;;4.45;2.97;;;23.60;51.50;;;;;;5062903;28;20048;-71
2023/07/23 08:23:28;;;;;;;4.25;2.47;;;23.60;51.50;;;;;;5060976;28;20109;-70
2023/07/23 08:25:58;;;;;;;4.78;2.47;;;23.60;51.50;;;;;;5064964;28;20045;-71
2023/07/23 08:28:29;;;;;;;4.60;2.50;;;23.80;50.90;;;;;;5064470;28;20044;-71
2023/07/23 08:30:56;;;;;;;5.80;2.30;;;23.90;50.40;;;;;;5063754;28;20089;-71
2023/07/23 08:33:28;;;;;;;4.38;2.50;;;24.00;50.10;;;;;;5066294;28;20040;-71
2023/07/23 08:35:56;;;;;;;4.13;2.42;;;24.00;50.00;;;;;;5062734;28;20144;-71
2023/07/23 08:38:23;;;;;;;3.08;1.95;;;24.10;49.70;;;;;;5059648;28;20049;-71
2023/07/23 08:40:57;;;;;;;3.67;2.35;;;24.10;49.50;;;;;;5062311;28;20453;-71
2023/07/23 08:43:58;;;;;;;3.78;2.20;;;24.20;49.20;;;;;;5066948;28;20410;-71
2023/07/23 08:46:26;;;;;;;4.00;2.17;;;24.20;49.10;;;;;;5065588;28;20447;-72
2023/07/23 08:49:11;;;;;;;3.17;1.98;;;24.50;48.60;;;;;;5065959;28;20053;-71
2023/07/23 08:51:43;;;;;;;4.38;2.15;;;24.60;48.40;;;;;;5068754;28;20041;-71
2023/07/23 08:54:12;;;;;;;3.55;1.85;;;24.70;48.00;;;;;;5063545;28;20063;-71
2023/07/23 08:56:40;;;;;;;4.20;2.00;;;25.00;47.60;;;;;;5062844;28;20967;-71
2023/07/23 08:59:11;;;;;;;3.38;2.20;;;25.10;47.20;;;;;;5064536;28;20535;-71
2023/07/23 09:01:40;;;;;;;3.72;1.98;;;25.30;46.60;;;;;;5064506;28;20131;-71
2023/07/23 09:04:09;;;;;;;3.38;2.10;;;25.30;46.40;;;;;;5063752;28;20432;-71
2023/07/23 09:06:37;;;;;;;5.35;2.38;;;25.20;46.30;;;;;;5062944;28;20396;-71
2023/07/23 09:09:05;;;;;;;3.53;2.22;;;25.10;46.30;;;;;;5063455;28;20052;-70
2023/07/23 09:11:33;;;;;;;4.35;2.83;;;25.10;46.40;;;;;;5064632;28;20044;-71
2023/07/23 09:14:01;;;;;;;4.00;2.47;;;25.10;46.30;;;;;;5063086;28;20048;-71
2023/07/23 09:16:28;;;;;;;4.57;2.60;;;25.00;46.50;;;;;;5064825;28;20477;-71
2023/07/23 09:18:55;;;;;;;4.82;2.67;;;24.90;46.40;;;;;;5062331;28;20049;-71
2023/07/23 09:21:28;;;;;;;5.13;2.50;;;25.00;46.60;;;;;;5060316;28;20587;-71
2023/07/23 09:23:57;;;;;;;3.53;2.05;;;25.10;46.60;;;;;;5080884;28;20086;-70
2023/07/23 09:26:26;;;;;;;3.92;2.03;;;25.30;46.40;;;;;;5062252;28;20527;-71
2023/07/23 09:28:54;;;;;;;3.85;2.30;;;25.30;45.80;;;;;;5064302;28;20698;-71
2023/07/23 09:31:26;;;;;;;3.75;2.00;;;25.50;45.90;;;;;;5061084;28;20429;-72
2023/07/23 09:33:54;;;;;;;3.50;2.10;;;25.50;45.50;;;;;;5060877;28;20044;-72
2023/07/23 09:36:22;;;;;;;2.83;1.60;;;25.60;45.10;;;;;;5065861;28;20044;-72
2023/07/23 09:38:59;;;;;;;2.88;1.52;;;25.70;44.30;;;;;;5062165;28;20045;-71
2023/07/23 09:41:31;;;;;;;2.53;1.60;;;25.80;43.50;;;;;;5061796;28;20049;-71
2023/07/23 09:44:03;;;;;;;2.80;1.10;;;25.80;41.90;;;;;;5062730;28;20625;-71
2023/07/23 09:46:31;;;;;;;2.00;1.27;;;26.00;41.60;;;;;;5058706;28;20516;-71
2023/07/23 09:48:58;;;;;;;2.40;1.33;;;26.00;40.60;;;;;;5063155;28;20089;-70
2023/07/23 09:51:25;;;;;;;1.90;1.10;;;26.10;40.20;;;;;;5063277;28;20140;-70
2023/07/23 09:53:54;;;;;;;2.33;1.05;;;26.20;40.60;;;;;;5064135;28;20496;-72
2023/07/23 09:56:23;;;;;;;2.15;1.10;;;26.20;41.00;;;;;;5060461;28;20053;-71
2023/07/23 09:58:52;;;;;;;3.38;1.50;;;26.40;40.90;;;;;;5060941;28;20132;-70
2023/07/23 10:01:19;;;;;;;2.63;1.35;;;26.40;41.10;;;;;;5060919;28;20040;-70
2023/07/23 10:03:48;;;;;;;3.03;1.40;;;26.40;40.80;;;;;;5058446;28;20530;-71
2023/07/23 10:06:20;;;;;;;3.63;1.60;;;26.40;40.80;;;;;;5061050;28;20408;-71
2023/07/23 10:08:48;;;;;;;3.88;1.58;;;26.40;41.00;;;;;;5061451;28;20469;-72
2023/07/23 10:11:17;;;;;;;1.83;1.10;;;26.50;41.30;;;;;;5061929;28;20054;-71
2023/07/23 10:13:48;;;;;;;2.15;1.10;;;26.50;41.10;;;;;;5062618;28;20463;-72
2023/07/23 10:16:19;;;;;;;2.53;1.33;;;26.50;40.50;;;;;;5062043;28;20481;-72
2023/07/23 10:18:48;;;;;;;2.88;1.30;;;26.50;40.20;;;;;;5062854;28;20496;-72
2023/07/23 10:21:16;;;;;;;3.08;1.40;;;26.50;39.80;;;;;;5063223;28;20504;-71
2023/07/23 10:23:43;;;;;;;2.63;1.40;;;26.50;39.40;;;;;;5061581;28;20083;-71
2023/07/23 10:26:21;;;;;;;1.83;1.00;;;26.50;39.50;;;;;;5062415;28;20410;-70
2023/07/23 10:28:50;;;;;;;2.28;1.30;;;26.50;40.10;;;;;;5062638;28;20053;-71
2023/07/23 10:31:25;;;;;;;2.55;1.25;;;26.40;40.00;;;;;;5061676;28;20048;-72
2023/07/23 10:33:52;;;;;;;2.50;1.20;;;26.40;40.20;;;;;;5062626;28;20407;-72
2023/07/23 10:36:22;;;;;;;2.03;1.33;;;26.30;40.50;;;;;;5059620;28;20105;-71
2023/07/23 10:39:04;;;;;;;1.95;1.10;;;26.20;40.20;;;;;;5061591;28;20048;-71
2023/07/23 10:41:47;;;;;;;1.48;0.90;;;26.20;40.70;;;;;;5061790;28;20095;-71
2023/07/23 10:44:23;;;;;;;2.33;1.35;;;26.10;41.00;;;;;;5062152;28;20048;-70
2023/07/23 10:46:50;;;;;;;3.28;1.40;;;26.00;41.10;;;;;;5066697;28;20459;-71
2023/07/23 10:49:21;;;;;;;2.00;1.25;;;26.00;41.00;;;;;;5065955;28;20057;-70
2023/07/23 10:51:50;;;;;;;2.35;1.40;;;25.90;41.60;;;;;;5065540;28;20036;-71
2023/07/23 10:54:19;;;;;;;2.08;1.13;;;25.80;42.10;;;;;;5067740;28;20494;-72
2023/07/23 10:56:47;;;;;;;1.67;1.13;;;25.80;42.20;;;;;;5068048;28;20049;-71
2023/07/23 10:59:16;;;;;;;2.45;1.35;;;25.80;42.50;;;;;;5062612;28;20816;-71
2023/07/23 11:01:45;;;;;;;;;;;25.70;43.00;;;;;;5062332;28;20045;-72
2023/07/23 11:04:14;;;;;;;1.95;0.95;;;25.80;43.60;;;;;;5063247;28;20376;-72
2023/07/23 11:06:55;;;;;;;2.15;1.27;;;25.80;44.20;;;;;;5063609;28;20045;-72
2023/07/23 11:09:26;;;;;;;2.28;1.10;;;25.80;44.10;;;;;;5068944;28;20052;-71
2023/07/23 11:11:54;;;;;;;2.40;1.08;;;25.70;44.50;;;;;;5066838;28;20044;-72
2023/07/23 11:14:23;;;;;;;2.08;1.13;;;25.60;44.90;;;;;;5066100;28;20037;-71
2023/07/23 11:16:53;;;;;;;2.65;1.25;;;25.40;46.00;;;;;;5067208;28;20070;-71
2023/07/23 11:19:23;;;;;;;2.78;1.20;;;25.30;46.60;;;;;;5065621;28;20487;-71
2023/07/23 11:21:54;;;;;;;5.72;1.17;;;25.10;47.50;;;;;;5065138;28;20048;-71
2023/07/23 11:24:22;;;;;;;3.28;1.42;;;25.00;48.10;;;;;;5061325;28;20409;-70
2023/07/23 11:26:49;;;;;;;2.33;1.48;;;24.80;49.00;;;;;;5061850;28;20437;-72
2023/07/23 11:29:17;;;;;;;3.67;1.50;;;24.80;49.10;;;;;;5062675;28;20579;-70
2023/07/23 11:31:44;;;;;;;6.88;1.45;;;24.80;49.30;;;;;;5061448;28;20056;-72
2023/07/23 11:34:13;;;;;;;4.20;2.00;;;24.80;49.90;;;;;;5065306;28;20148;-72
2023/07/23 11:36:41;;;;;;;;;;;24.70;50.30;;;;;;5066951;28;20393;-72
2023/07/23 11:39:09;;;;;;;2.65;1.30;;;24.70;51.30;;;;;;5061672;28;20422;-72
2023/07/23 11:41:38;;;;;;;4.05;1.50;;;24.60;52.20;;;;;;5066243;28;20407;-73
2023/07/23 11:44:05;;;;;;;;;;;24.40;52.90;;;;;;5060972;28;20059;-70
2023/07/23 11:46:33;;;;;;;1.98;1.20;;;24.30;54.10;;;;;;5065504;28;20430;-71
2023/07/23 11:49:01;;;;;;;3.00;1.20;;;24.30;54.20;;;;;;5065578;28;20052;-72
2023/07/23 11:51:31;;;;;;;3.05;1.40;;;24.20;54.10;;;;;;5060599;28;20048;-71
2023/07/23 11:54:05;;;;;;;2.85;1.40;;;24.20;54.00;;;;;;5061458;28;20055;-71
2023/07/23 11:56:36;;;;;;;2.65;1.33;;;24.20;54.20;;;;;;5064429;28;20143;-70
2023/07/23 11:59:04;;;;;;;2.50;1.38;;;24.30;54.20;;;;;;5064805;28;20501;-72
2023/07/23 12:01:31;;;;;;;2.53;1.40;;;24.40;54.70;;;;;;5063735;28;20047;-71
2023/07/23 12:04:01;;;;;;;3.20;1.77;;;24.60;54.10;;;;;;5062316;28;20044;-72
2023/07/23 12:06:30;;;;;;;2.88;1.52;;;24.60;53.70;;;;;;5063303;28;20593;-70
2023/07/23 12:08:58;;;;;;;3.22;1.67;;;24.80;53.40;;;;;;5062726;28;20045;-71
2023/07/23 12:11:29;;;;;;;3.13;1.52;;;24.90;52.80;;;;;;5063390;28;20663;-71
2023/07/23 12:13:59;;;;;;;2.70;1.50;;;25.10;52.30;;;;;;5061550;28;20043;-72
2023/07/23 12:16:37;;;;;;;2.03;1.00;;;25.20;51.80;;;;;;5072318;28;20401;-69
2023/07/23 12:19:06;;;;;;;2.95;1.30;;;25.30;51.80;;;;;;5061793;28;20050;-71
2023/07/23 12:21:37;;;;;;;3.03;1.50;;;25.30;50.20;;;;;;5057077;28;20103;-72
2023/07/23 12:24:15;;;;;;;2.25;1.30;;;25.40;50.50;;;;;;5062760;28;20044;-73
2023/07/23 12:26:42;;;;;;;2.75;1.63;;;25.50;49.90;;;;;;5063242;28;20116;-71
2023/07/23 12:29:10;;;;;;;2.65;1.40;;;25.50;49.00;;;;;;5058146;28;20152;-72
2023/07/23 12:31:41;;;;;;;3.78;1.55;;;25.50;48.60;;;;;;5065223;28;20068;-71
2023/07/23 12:34:08;;;;;;;2.92;1.48;;;25.50;48.60;;;;;;5065090;28;20223;-71
2023/07/23 12:36:36;;;;;;;3.28;1.77;;;25.50;48.10;;;;;;5065030;28;20051;-71
2023/07/23 12:39:04;;;;;;;3.47;1.95;;;25.50;48.00;;;;;;5062272;28;20051;-72
2023/07/23 12:41:32;;;;;;;2.70;1.60;;;25.50;47.80;;;;;;5064066;28;20044;-71
2023/07/23 12:43:59;;;;;;;2.08;1.40;;;25.60;47.50;;;;;;5064709;28;20041;-71
2023/07/23 12:46:26;;;;;;;3.58;1.90;;;25.80;46.70;;;;;;5065110;28;20123;-73
2023/07/23 12:48:54;;;;;;;3.08;1.63;;;25.80;46.30;;;;;;5057422;28;20048;-72
2023/07/23 12:51:22;;;;;;;3.47;1.70;;;25.80;45.50;;;;;;5060922;28;20481;-71
2023/07/23 12:53:51;;;;;;;3.42;1.63;;;26.00;45.40;;;;;;5062036;28;20052;-71